Time;durP1;ratioP1;P1;durP2;ratioP2;P2;SDS_P1;SDS_P2;PMS_P1;PMS_P2;Temp;Humidity;BMP_temperature;BMP_pressure;BME280_temperature;BME280_humidity;BME280_pressure;Samples;Min_cycle;Max_cycle;Signal;HPM_P1;HPM_P2
2021/10/21 00:00:50;;;;;;;20.13;11.40;;;;;;;;;;2106582;28;20048;-49
2021/10/21 00:01:51;;;;;;;;;;;;;;;;;;2106533;28;20055;-45
2021/10/21 00:02:53;;;;;;;18.52;11.13;;;;;;;;;;2102792;28;20297;-45
2021/10/21 00:03:54;;;;;;;17.08;10.45;;;;;;;;;;2098294;28;20052;-46
2021/10/21 00:04:55;;;;;;;21.30;11.52;;;;;;;;;;2099095;28;20052;-46
2021/10/21 00:05:57;;;;;;;19.70;11.77;;;;;;;;;;2106218;28;20135;-45
2021/10/21 00:06:58;;;;;;;20.13;11.68;;;;;;;;;;2106500;28;20135;-49
2021/10/21 00:07:59;;;;;;;16.70;10.60;;;;;;;;;;2104876;28;20567;-45
2021/10/21 00:09:00;;;;;;;17.02;10.65;;;;;;;;;;2105086;28;20040;-45
2021/10/21 00:10:03;;;;;;;19.92;11.45;;;;;;;;;;2106641;28;20132;-45
2021/10/21 00:11:04;;;;;;;20.10;11.85;;;;;;;;;;2104551;28;20193;-45
2021/10/21 00:12:05;;;;;;;20.50;11.13;;;;;;;;;;2105918;28;20105;-46
2021/10/21 00:13:06;;;;;;;21.10;11.88;;;;;;;;;;2106551;28;20056;-45
2021/10/21 00:14:07;;;;;;;20.27;11.47;;;;;;;;;;2105490;28;20056;-46
2021/10/21 00:15:09;;;;;;;22.95;11.93;;;;;;;;;;2106231;28;20062;-45
2021/10/21 00:16:11;;;;;;;17.40;10.50;;;;;;;;;;2106504;28;20056;-48
2021/10/21 00:17:12;;;;;;;21.55;12.30;;;;;;;;;;2104082;28;20048;-46
2021/10/21 00:18:13;;;;;;;24.03;12.83;;;;;;;;;;2106427;28;20048;-46
2021/10/21 00:19:14;;;;;;;21.15;12.18;;;;;;;;;;2106548;28;20048;-46
2021/10/21 00:20:15;;;;;;;18.03;10.50;;;;;;;;;;2104237;28;20048;-45
2021/10/21 00:21:16;;;;;;;20.73;10.98;;;;;;;;;;2105266;28;20089;-45
2021/10/21 00:22:18;;;;;;;17.88;11.55;;;;;;;;;;2106578;28;20102;-45
2021/10/21 00:23:19;;;;;;;20.30;12.00;;;;;;;;;;2105116;28;20040;-45
2021/10/21 00:24:20;;;;;;;20.40;11.40;;;;;;;;;;2106365;28;20409;-45
2021/10/21 00:25:21;;;;;;;14.55;10.20;;;;;;;;;;2106422;28;20422;-45
2021/10/21 00:26:23;;;;;;;23.02;11.45;;;;;;;;;;2105111;28;20056;-44
2021/10/21 00:27:24;;;;;;;18.27;10.80;;;;;;;;;;2106246;28;20471;-45
2021/10/21 00:28:25;;;;;;;16.73;10.00;;;;;;;;;;2106377;28;20040;-47
2021/10/21 00:29:26;;;;;;;22.13;10.88;;;;;;;;;;2103630;28;20044;-44
2021/10/21 00:30:27;;;;;;;20.63;11.33;;;;;;;;;;2106521;28;20059;-47
2021/10/21 00:31:29;;;;;;;21.38;11.50;;;;;;;;;;2105808;28;20051;-45
2021/10/21 00:32:30;;;;;;;18.27;11.20;;;;;;;;;;2105556;28;20059;-45
2021/10/21 00:33:31;;;;;;;18.63;10.10;;;;;;;;;;2106143;28;20078;-47
2021/10/21 00:34:32;;;;;;;17.73;11.10;;;;;;;;;;2105819;28;20054;-45
2021/10/21 00:35:33;;;;;;;20.67;11.48;;;;;;;;;;2105133;28;20580;-45
2021/10/21 00:36:35;;;;;;;20.08;11.80;;;;;;;;;;2106353;28;20040;-46
2021/10/21 00:37:36;;;;;;;17.13;10.63;;;;;;;;;;2105073;28;20119;-45
2021/10/21 00:38:37;;;;;;;20.98;11.20;;;;;;;;;;2106330;28;20469;-46
2021/10/21 00:39:38;;;;;;;20.20;11.55;;;;;;;;;;2106459;28;20127;-44
2021/10/21 00:40:39;;;;;;;21.93;10.73;;;;;;;;;;2104154;28;20044;-46
2021/10/21 00:41:40;;;;;;;18.67;11.30;;;;;;;;;;2105767;28;20036;-45
2021/10/21 00:42:41;;;;;;;21.50;10.80;;;;;;;;;;2106211;28;20058;-46
2021/10/21 00:43:42;;;;;;;18.85;11.23;;;;;;;;;;2105201;28;20074;-47
2021/10/21 00:44:44;;;;;;;19.45;10.82;;;;;;;;;;2104935;28;20076;-45
2021/10/21 00:45:45;;;;;;;19.35;10.68;;;;;;;;;;2106260;28;20036;-45
2021/10/21 00:46:47;;;;;;;19.37;10.77;;;;;;;;;;2105144;28;20106;-45
2021/10/21 00:47:48;;;;;;;18.23;10.57;;;;;;;;;;2105765;28;20123;-45
2021/10/21 00:48:49;;;;;;;14.90;9.67;;;;;;;;;;2106396;28;20110;-46
2021/10/21 00:49:50;;;;;;;19.10;10.93;;;;;;;;;;2103930;28;20421;-45
2021/10/21 00:50:51;;;;;;;19.13;9.97;;;;;;;;;;2106092;28;20051;-45
2021/10/21 00:51:52;;;;;;;17.55;10.48;;;;;;;;;;2106168;28;20127;-45
2021/10/21 00:52:54;;;;;;;16.75;10.60;;;;;;;;;;2103935;28;20484;-47
2021/10/21 00:53:55;;;;;;;15.80;10.05;;;;;;;;;;2105071;28;20131;-45
2021/10/21 00:54:56;;;;;;;19.77;10.60;;;;;;;;;;2106341;28;20045;-45
2021/10/21 00:55:57;;;;;;;19.77;10.10;;;;;;;;;;2104982;28;20373;-46
2021/10/21 00:56:58;;;;;;;19.37;10.07;;;;;;;;;;2105981;28;20095;-45
2021/10/21 00:58:01;;;;;;;20.83;11.50;;;;;;;;;;2106253;28;20089;-46
2021/10/21 00:59:04;;;;;;;20.40;11.07;;;;;;;;;;2104687;28;20048;-47
2021/10/21 01:00:06;;;;;;;22.05;11.00;;;;;;;;;;2106247;28;20078;-47
2021/10/21 01:01:07;;;;;;;19.08;11.15;;;;;;;;;;2105740;28;20056;-45
2021/10/21 01:02:09;;;;;;;18.48;10.95;;;;;;;;;;2105207;28;20532;-45
2021/10/21 01:03:11;;;;;;;15.60;10.57;;;;;;;;;;2101307;28;20071;-46
2021/10/21 01:04:11;;;;;;;19.08;10.40;;;;;;;;;;2098486;28;20124;-46
2021/10/21 01:05:13;;;;;;;20.35;11.85;;;;;;;;;;2104173;28;20389;-46
2021/10/21 01:06:13;;;;;;;15.63;9.98;;;;;;;;;;2106231;28;20170;-46
2021/10/21 01:07:15;;;;;;;18.23;10.90;;;;;;;;;;2105159;28;20546;-45
2021/10/21 01:08:16;;;;;;;21.77;10.85;;;;;;;;;;2105986;28;20154;-46
2021/10/21 01:09:18;;;;;;;17.65;10.98;;;;;;;;;;2106209;28;20048;-46
2021/10/21 01:10:18;;;;;;;;;;;;;;;;;;2104447;28;20131;-46
2021/10/21 01:11:20;;;;;;;17.80;10.55;;;;;;;;;;2105871;28;19923;-46
2021/10/21 01:12:20;;;;;;;17.75;11.05;;;;;;;;;;2106206;28;20079;-46
2021/10/21 01:13:21;;;;;;;20.55;11.23;;;;;;;;;;2104111;28;20050;-45
2021/10/21 01:14:22;;;;;;;20.23;10.45;;;;;;;;;;2104810;28;20054;-47
2021/10/21 01:15:26;;;;;;;22.17;11.23;;;;;;;;;;2106005;28;20527;-46
2021/10/21 01:16:27;;;;;;;17.30;11.63;;;;;;;;;;2104888;28;20473;-44
2021/10/21 01:17:29;;;;;;;19.90;10.95;;;;;;;;;;2105175;28;20037;-45
2021/10/21 01:18:30;;;;;;;19.30;11.38;;;;;;;;;;2106015;28;20044;-46
2021/10/21 01:19:32;;;;;;;18.67;10.77;;;;;;;;;;2104895;28;20055;-45
2021/10/21 01:20:34;;;;;;;19.30;11.63;;;;;;;;;;2105742;28;20044;-45
2021/10/21 01:21:35;;;;;;;17.52;10.63;;;;;;;;;;2106030;28;20073;-45
2021/10/21 01:22:36;;;;;;;17.63;11.05;;;;;;;;;;2102587;28;20173;-45
2021/10/21 01:23:38;;;;;;;18.07;11.70;;;;;;;;;;2105924;28;20044;-46
2021/10/21 01:24:39;;;;;;;17.08;10.93;;;;;;;;;;2106174;28;20124;-45
2021/10/21 01:25:40;;;;;;;19.37;10.80;;;;;;;;;;2104629;28;20048;-45
2021/10/21 01:26:42;;;;;;;18.65;11.40;;;;;;;;;;2106152;28;20044;-45
2021/10/21 01:27:44;;;;;;;22.75;11.20;;;;;;;;;;2106019;28;20409;-45
2021/10/21 01:28:45;;;;;;;20.38;10.88;;;;;;;;;;2104673;28;20461;-46
2021/10/21 01:29:46;;;;;;;23.03;10.93;;;;;;;;;;2105560;28;20054;-46
2021/10/21 01:30:47;;;;;;;20.40;12.25;;;;;;;;;;2105425;28;20478;-45
2021/10/21 01:31:49;;;;;;;22.52;11.10;;;;;;;;;;2104045;28;20147;-46
2021/10/21 01:32:51;;;;;;;20.77;11.02;;;;;;;;;;2106029;28;20056;-45
2021/10/21 01:33:52;;;;;;;19.17;11.48;;;;;;;;;;2105419;28;20587;-48
2021/10/21 01:34:53;;;;;;;19.38;10.65;;;;;;;;;;2104354;28;20078;-46
2021/10/21 01:35:55;;;;;;;17.70;11.00;;;;;;;;;;2106055;28;20613;-46
2021/10/21 01:36:56;;;;;;;18.80;11.85;;;;;;;;;;2104525;28;20135;-44
2021/10/21 01:38:01;;;;;;;22.23;11.25;;;;;;;;;;2104480;28;20545;-46
2021/10/21 01:39:02;;;;;;;19.90;10.65;;;;;;;;;;2105914;28;20556;-46
2021/10/21 01:40:04;;;;;;;21.23;11.82;;;;;;;;;;2104713;28;20127;-45
2021/10/21 01:41:05;;;;;;;18.98;11.38;;;;;;;;;;2104814;28;20442;-46
2021/10/21 01:42:06;;;;;;;22.97;12.30;;;;;;;;;;2105801;28;20135;-45
2021/10/21 01:43:12;;;;;;;23.45;11.73;;;;;;;;;;2103723;28;20400;-44
2021/10/21 01:44:14;;;;;;;19.20;11.25;;;;;;;;;;2105649;28;20170;-45
2021/10/21 01:45:15;;;;;;;20.30;11.88;;;;;;;;;;2105873;28;20600;-45
2021/10/21 01:46:16;;;;;;;;;;;;;;;;;;2105257;28;20054;-45
2021/10/21 01:47:17;;;;;;;19.00;11.50;;;;;;;;;;2105566;28;19927;-45
2021/10/21 01:48:18;;;;;;;17.10;11.23;;;;;;;;;;2106109;28;20040;-42
2021/10/21 01:49:20;;;;;;;20.20;11.55;;;;;;;;;;2104560;28;20403;-42
2021/10/21 01:50:21;;;;;;;19.73;11.73;;;;;;;;;;2105284;28;20052;-42
2021/10/21 01:51:22;;;;;;;18.98;11.25;;;;;;;;;;2105972;28;20040;-42
2021/10/21 01:52:23;;;;;;;20.42;11.57;;;;;;;;;;2103510;28;20396;-42
2021/10/21 01:53:24;;;;;;;20.90;10.93;;;;;;;;;;2105883;28;20048;-42
2021/10/21 01:54:25;;;;;;;15.73;10.65;;;;;;;;;;2104939;28;20048;-42
2021/10/21 01:55:26;;;;;;;16.93;11.33;;;;;;;;;;2105658;28;20094;-42
2021/10/21 01:56:27;;;;;;;18.58;10.77;;;;;;;;;;2105832;28;20580;-42
2021/10/21 01:57:28;;;;;;;22.60;11.40;;;;;;;;;;2104693;28;20127;-42
2021/10/21 01:58:29;;;;;;;19.98;11.15;;;;;;;;;;2105576;28;20040;-42
2021/10/21 01:59:31;;;;;;;21.33;11.32;;;;;;;;;;2105916;28;20416;-42
2021/10/21 02:00:32;;;;;;;20.17;11.25;;;;;;;;;;2104592;28;20087;-42
2021/10/21 02:01:33;;;;;;;21.27;12.10;;;;;;;;;;2105620;28;20071;-42
2021/10/21 02:02:35;;;;;;;18.40;11.70;;;;;;;;;;2105867;28;20122;-42
2021/10/21 02:03:36;;;;;;;20.88;11.23;;;;;;;;;;2102313;28;20066;-42
2021/10/21 02:04:37;;;;;;;16.02;11.30;;;;;;;;;;2105617;28;20047;-42
2021/10/21 02:05:38;;;;;;;18.40;11.00;;;;;;;;;;2105845;28;20576;-42
2021/10/21 02:06:39;;;;;;;16.05;10.23;;;;;;;;;;2103421;28;20119;-42
2021/10/21 02:07:41;;;;;;;16.50;10.52;;;;;;;;;;2097367;28;20041;-42
2021/10/21 02:08:42;;;;;;;21.60;11.60;;;;;;;;;;2097338;28;20465;-42
2021/10/21 02:09:43;;;;;;;22.27;11.73;;;;;;;;;;2102817;28;20059;-42
2021/10/21 02:10:44;;;;;;;19.23;11.30;;;;;;;;;;2105825;28;20131;-42
2021/10/21 02:11:45;;;;;;;20.67;12.60;;;;;;;;;;2105780;28;20574;-42
2021/10/21 02:12:47;;;;;;;16.98;11.05;;;;;;;;;;2103919;28;20127;-42
2021/10/21 02:13:48;;;;;;;18.48;10.70;;;;;;;;;;2105866;28;20040;-41
2021/10/21 02:14:49;;;;;;;20.52;11.50;;;;;;;;;;2104331;28;20127;-42
2021/10/21 02:15:50;;;;;;;17.40;10.97;;;;;;;;;;2105772;28;20396;-42
2021/10/21 02:16:51;;;;;;;17.50;11.43;;;;;;;;;;2105669;28;20489;-42
2021/10/21 02:17:52;;;;;;;20.08;11.32;;;;;;;;;;2104639;28;20040;-42
2021/10/21 02:18:53;;;;;;;20.73;11.15;;;;;;;;;;2105399;28;20135;-42
2021/10/21 02:19:54;;;;;;;19.87;11.33;;;;;;;;;;2105676;28;20105;-42
2021/10/21 02:20:55;;;;;;;23.98;11.15;;;;;;;;;;2104690;28;20185;-42
2021/10/21 02:21:57;;;;;;;25.20;11.43;;;;;;;;;;2104858;28;20131;-42
2021/10/21 02:22:58;;;;;;;19.90;10.73;;;;;;;;;;2105843;28;20122;-42
2021/10/21 02:23:59;;;;;;;21.75;12.13;;;;;;;;;;2103497;28;20162;-42
2021/10/21 02:25:00;;;;;;;17.00;10.93;;;;;;;;;;2104684;28;20523;-42
2021/10/21 02:26:01;;;;;;;18.70;11.40;;;;;;;;;;2106163;28;20134;-42
2021/10/21 02:27:02;;;;;;;17.83;11.40;;;;;;;;;;2105827;28;20039;-42
2021/10/21 02:28:04;;;;;;;18.77;11.73;;;;;;;;;;2106754;28;20556;-42
2021/10/21 02:29:04;;;;;;;20.27;12.00;;;;;;;;;;2107079;28;20395;-42
2021/10/21 02:30:07;;;;;;;21.42;11.35;;;;;;;;;;2105986;28;20044;-42
2021/10/21 02:31:07;;;;;;;20.15;11.60;;;;;;;;;;2106909;28;20503;-42
2021/10/21 02:32:09;;;;;;;21.77;11.23;;;;;;;;;;2107243;28;20056;-42
2021/10/21 02:33:10;;;;;;;27.92;12.52;;;;;;;;;;2105791;28;21425;-42
2021/10/21 02:34:11;;;;;;;19.77;12.10;;;;;;;;;;2107263;28;20067;-41
2021/10/21 02:35:12;;;;;;;18.65;12.05;;;;;;;;;;2107157;28;20553;-41
2021/10/21 02:36:13;;;;;;;18.63;10.93;;;;;;;;;;2105856;28;20117;-42
2021/10/21 02:37:19;;;;;;;18.05;10.57;;;;;;;;;;2107060;28;20478;-42
2021/10/21 02:38:20;;;;;;;20.02;10.88;;;;;;;;;;2106537;28;20194;-42
2021/10/21 02:39:21;;;;;;;18.20;10.95;;;;;;;;;;2106305;28;20043;-41
2021/10/21 02:40:22;;;;;;;19.07;11.13;;;;;;;;;;2107090;28;20539;-42
2021/10/21 02:41:24;;;;;;;20.40;11.40;;;;;;;;;;2105961;28;20588;-42
2021/10/21 02:42:25;;;;;;;19.02;10.85;;;;;;;;;;2106936;28;20139;-43
2021/10/21 02:43:26;;;;;;;17.02;11.05;;;;;;;;;;2107018;28;20131;-42
2021/10/21 02:44:27;;;;;;;17.80;11.40;;;;;;;;;;2105148;28;20055;-42
2021/10/21 02:45:28;;;;;;;15.93;11.40;;;;;;;;;;2107463;28;20466;-42
2021/10/21 02:46:29;;;;;;;19.73;10.88;;;;;;;;;;2107183;28;20276;-41
2021/10/21 02:47:30;;;;;;;20.77;11.38;;;;;;;;;;2104929;28;20480;-42
2021/10/21 02:48:31;;;;;;;18.10;11.13;;;;;;;;;;2106591;28;20040;-42
2021/10/21 02:49:32;;;;;;;17.75;10.73;;;;;;;;;;2106985;28;20040;-42
2021/10/21 02:50:33;;;;;;;22.67;10.82;;;;;;;;;;2105600;28;20048;-42
2021/10/21 02:51:34;;;;;;;22.30;12.38;;;;;;;;;;2106132;28;20044;-42
2021/10/21 02:52:36;;;;;;;19.17;12.17;;;;;;;;;;2107002;28;20048;-41
2021/10/21 02:53:37;;;;;;;;;;;;;;;;;;2106367;28;20450;-41
2021/10/21 02:54:38;;;;;;;18.30;10.68;;;;;;;;;;2106903;28;19927;-42
2021/10/21 02:55:39;;;;;;;19.73;11.88;;;;;;;;;;2106987;28;20505;-42
2021/10/21 02:56:40;;;;;;;18.67;11.77;;;;;;;;;;2105779;28;20126;-42
2021/10/21 02:57:41;;;;;;;20.10;12.23;;;;;;;;;;2106744;28;20147;-42
2021/10/21 02:58:42;;;;;;;19.50;11.65;;;;;;;;;;2106970;28;20131;-41
2021/10/21 02:59:43;;;;;;;19.13;11.47;;;;;;;;;;2105550;28;20282;-42
2021/10/21 03:00:44;;;;;;;21.85;12.02;;;;;;;;;;2106838;28;20127;-41
2021/10/21 03:01:45;;;;;;;18.70;11.20;;;;;;;;;;2107018;28;20101;-42
2021/10/21 03:02:46;;;;;;;18.42;11.45;;;;;;;;;;2103041;28;20044;-41
2021/10/21 03:03:47;;;;;;;21.93;11.77;;;;;;;;;;2107077;28;20127;-42
2021/10/21 03:04:48;;;;;;;20.77;12.05;;;;;;;;;;2106954;28;20787;-42
2021/10/21 03:05:49;;;;;;;23.25;12.48;;;;;;;;;;2105615;28;20055;-42
2021/10/21 03:06:50;;;;;;;19.08;12.18;;;;;;;;;;2106850;28;20464;-42
2021/10/21 03:07:52;;;;;;;20.42;11.75;;;;;;;;;;2106943;28;20082;-42
2021/10/21 03:08:54;;;;;;;20.58;11.95;;;;;;;;;;2105187;28;20135;-42
2021/10/21 03:09:55;;;;;;;18.92;12.02;;;;;;;;;;2106842;28;20178;-41
2021/10/21 03:10:56;;;;;;;18.15;11.50;;;;;;;;;;2105043;28;20144;-42
2021/10/21 03:11:57;;;;;;;16.47;11.00;;;;;;;;;;2106270;28;20071;-42
2021/10/21 03:12:58;;;;;;;20.60;11.98;;;;;;;;;;2107096;28;20129;-42
2021/10/21 03:14:00;;;;;;;22.02;12.80;;;;;;;;;;2104797;28;20135;-42
2021/10/21 03:15:01;;;;;;;22.15;11.63;;;;;;;;;;2106667;28;20189;-42
2021/10/21 03:16:02;;;;;;;22.40;12.57;;;;;;;;;;2106974;28;20072;-42
2021/10/21 03:17:03;;;;;;;22.40;13.07;;;;;;;;;;2105923;28;20285;-41
2021/10/21 03:18:04;;;;;;;19.83;12.80;;;;;;;;;;2107723;28;20048;-41
2021/10/21 03:19:06;;;;;;;16.13;11.68;;;;;;;;;;2106874;28;20050;-42
2021/10/21 03:20:08;;;;;;;;;;;;;;;;;;2106290;28;20062;-42
2021/10/21 03:21:09;;;;;;;19.90;12.13;;;;;;;;;;2106476;28;20467;-42
2021/10/21 03:22:10;;;;;;;23.47;12.33;;;;;;;;;;2106479;28;20043;-42
2021/10/21 03:23:12;;;;;;;19.20;12.48;;;;;;;;;;2105758;28;20072;-42
2021/10/21 03:24:13;;;;;;;;;;;;;;;;;;2107149;28;20051;-42
2021/10/21 03:25:14;;;;;;;18.70;12.23;;;;;;;;;;2106810;28;20304;-42
2021/10/21 03:26:15;;;;;;;23.65;13.77;;;;;;;;;;2105442;28;20420;-41
2021/10/21 03:27:16;;;;;;;23.88;13.18;;;;;;;;;;2106739;28;20127;-42
2021/10/21 03:28:18;;;;;;;24.60;13.77;;;;;;;;;;2106755;28;20135;-42
2021/10/21 03:29:18;;;;;;;17.20;12.30;;;;;;;;;;2105375;28;20193;-42
2021/10/21 03:30:19;;;;;;;22.50;13.47;;;;;;;;;;2106919;28;20040;-42
2021/10/21 03:31:20;;;;;;;19.30;12.75;;;;;;;;;;2106345;28;20483;-41
2021/10/21 03:32:22;;;;;;;22.80;14.00;;;;;;;;;;2103000;28;20044;-42
2021/10/21 03:33:23;;;;;;;22.00;12.35;;;;;;;;;;2106815;28;20083;-42
2021/10/21 03:34:24;;;;;;;22.40;12.85;;;;;;;;;;2106280;28;20063;-42
2021/10/21 03:35:24;;;;;;;23.02;13.85;;;;;;;;;;2104893;28;20047;-42
2021/10/21 03:36:26;;;;;;;19.00;13.03;;;;;;;;;;2106755;28;20515;-41
2021/10/21 03:37:27;;;;;;;19.02;13.38;;;;;;;;;;2105337;28;20056;-42
2021/10/21 03:38:29;;;;;;;19.95;12.95;;;;;;;;;;2105025;28;20062;-42
2021/10/21 03:39:30;;;;;;;22.05;13.32;;;;;;;;;;2106844;28;20135;-41
2021/10/21 03:40:31;;;;;;;21.43;13.77;;;;;;;;;;2105200;28;20070;-42
2021/10/21 03:41:32;;;;;;;27.52;14.70;;;;;;;;;;2105211;28;20485;-41
2021/10/21 03:42:33;;;;;;;22.80;14.40;;;;;;;;;;2106723;28;20055;-41
2021/10/21 03:43:34;;;;;;;19.38;13.40;;;;;;;;;;2103318;28;20132;-42
2021/10/21 03:44:35;;;;;;;22.17;13.60;;;;;;;;;;2106335;28;20040;-41
2021/10/21 03:45:36;;;;;;;22.33;13.60;;;;;;;;;;2106666;28;20481;-41
2021/10/21 03:46:39;;;;;;;20.13;13.13;;;;;;;;;;2105760;28;20044;-41
2021/10/21 03:47:41;;;;;;;19.95;13.02;;;;;;;;;;2106406;28;20047;-41
2021/10/21 03:48:42;;;;;;;22.70;12.68;;;;;;;;;;2106811;28;20047;-41
2021/10/21 03:49:43;;;;;;;20.73;13.20;;;;;;;;;;2105530;28;20257;-42
2021/10/21 03:50:44;;;;;;;22.52;14.45;;;;;;;;;;2106516;28;20057;-41
2021/10/21 03:51:45;;;;;;;20.27;13.63;;;;;;;;;;2106618;28;20058;-41
2021/10/21 03:52:46;;;;;;;25.02;14.07;;;;;;;;;;2105641;28;20039;-42
2021/10/21 03:53:47;;;;;;;21.15;13.32;;;;;;;;;;2106495;28;20050;-41
2021/10/21 03:54:49;;;;;;;20.73;13.50;;;;;;;;;;2106573;28;20117;-42
2021/10/21 03:55:50;;;;;;;21.10;13.95;;;;;;;;;;2105245;28;20301;-41
2021/10/21 03:56:51;;;;;;;24.58;13.52;;;;;;;;;;2106472;28;20105;-42
2021/10/21 03:57:52;;;;;;;20.83;13.05;;;;;;;;;;2106509;28;20559;-42
2021/10/21 03:58:54;;;;;;;26.60;13.80;;;;;;;;;;2105297;28;20058;-42
2021/10/21 03:59:55;;;;;;;23.45;13.90;;;;;;;;;;2106543;28;20079;-42
2021/10/21 04:00:56;;;;;;;22.73;13.10;;;;;;;;;;2106556;28;20129;-41
2021/10/21 04:01:57;;;;;;;22.38;13.80;;;;;;;;;;2105137;28;20513;-41
2021/10/21 04:02:59;;;;;;;23.15;13.75;;;;;;;;;;2103299;28;20071;-41
2021/10/21 04:04:01;;;;;;;21.65;14.63;;;;;;;;;;2097919;28;20436;-42
2021/10/21 04:05:02;;;;;;;24.13;14.63;;;;;;;;;;2105597;28;20050;-47
2021/10/21 04:06:03;;;;;;;22.10;14.40;;;;;;;;;;2106480;28;20170;-46
2021/10/21 04:07:04;;;;;;;22.03;14.57;;;;;;;;;;2106092;28;20102;-46
2021/10/21 04:08:05;;;;;;;24.23;13.77;;;;;;;;;;2105648;28;20453;-45
2021/10/21 04:09:07;;;;;;;26.17;14.07;;;;;;;;;;2106414;28;20096;-45
2021/10/21 04:10:08;;;;;;;28.15;13.98;;;;;;;;;;2105464;28;20156;-45
2021/10/21 04:11:09;;;;;;;24.13;14.82;;;;;;;;;;2106465;28;20050;-45
2021/10/21 04:12:10;;;;;;;21.63;14.57;;;;;;;;;;2106549;28;20181;-45
2021/10/21 04:13:11;;;;;;;22.23;14.45;;;;;;;;;;2104613;28;20676;-45
2021/10/21 04:14:12;;;;;;;23.25;14.20;;;;;;;;;;2106095;28;20048;-46
2021/10/21 04:15:13;;;;;;;25.15;14.80;;;;;;;;;;2106430;28;20081;-46
2021/10/21 04:16:14;;;;;;;26.40;14.32;;;;;;;;;;2105337;28;20512;-47
2021/10/21 04:17:19;;;;;;;26.77;14.67;;;;;;;;;;2106062;28;20052;-46
2021/10/21 04:18:20;;;;;;;24.80;14.52;;;;;;;;;;2106033;28;20123;-45
2021/10/21 04:19:21;;;;;;;21.77;14.40;;;;;;;;;;2105463;28;20052;-45
2021/10/21 04:20:22;;;;;;;20.77;14.70;;;;;;;;;;2106101;28;20055;-45
2021/10/21 04:21:23;;;;;;;24.00;14.07;;;;;;;;;;2106517;28;20048;-45
2021/10/21 04:22:24;;;;;;;23.73;14.30;;;;;;;;;;2105257;28;20040;-45
2021/10/21 04:23:25;;;;;;;20.60;13.85;;;;;;;;;;2106275;28;20044;-45
2021/10/21 04:24:26;;;;;;;26.85;14.35;;;;;;;;;;2106403;28;20485;-45
2021/10/21 04:25:28;;;;;;;21.45;14.52;;;;;;;;;;2105392;28;20057;-45
2021/10/21 04:26:29;;;;;;;29.95;14.48;;;;;;;;;;2106264;28;20123;-47
2021/10/21 04:27:30;;;;;;;22.33;14.07;;;;;;;;;;2106375;28;20048;-45
2021/10/21 04:28:31;;;;;;;29.90;14.10;;;;;;;;;;2104005;28;20134;-45
2021/10/21 04:29:32;;;;;;;26.23;14.13;;;;;;;;;;2106340;28;20054;-45
2021/10/21 04:30:33;;;;;;;23.20;14.73;;;;;;;;;;2106427;28;20122;-49
2021/10/21 04:31:34;;;;;;;21.60;13.55;;;;;;;;;;2105120;28;20048;-44
2021/10/21 04:32:35;;;;;;;22.58;14.43;;;;;;;;;;2106283;28;20451;-45
2021/10/21 04:33:36;;;;;;;22.77;14.05;;;;;;;;;;2106398;28;20114;-48
2021/10/21 04:34:37;;;;;;;23.40;14.05;;;;;;;;;;2105042;28;20096;-45
2021/10/21 04:35:38;;;;;;;21.17;14.35;;;;;;;;;;2106487;28;20464;-46
2021/10/21 04:36:39;;;;;;;26.08;15.25;;;;;;;;;;2105948;28;20055;-45
2021/10/21 04:37:41;;;;;;;23.05;14.27;;;;;;;;;;2104428;28;20047;-46
2021/10/21 04:38:43;;;;;;;23.38;15.10;;;;;;;;;;2106451;28;20055;-47
2021/10/21 04:39:44;;;;;;;26.10;14.95;;;;;;;;;;2105811;28;20040;-45
2021/10/21 04:40:45;;;;;;;26.20;14.90;;;;;;;;;;2106596;28;20109;-44
2021/10/21 04:41:46;;;;;;;26.45;14.98;;;;;;;;;;2106188;28;20503;-44
2021/10/21 04:42:47;;;;;;;22.63;14.40;;;;;;;;;;2105050;28;20096;-45
2021/10/21 04:43:48;;;;;;;29.05;14.82;;;;;;;;;;2106300;28;20489;-46
2021/10/21 04:44:49;;;;;;;25.50;15.43;;;;;;;;;;2106266;28;20048;-45
2021/10/21 04:45:51;;;;;;;26.98;16.55;;;;;;;;;;2104577;28;20151;-47
2021/10/21 04:46:51;;;;;;;28.48;15.75;;;;;;;;;;2105440;28;20048;-45
2021/10/21 04:47:56;;;;;;;22.83;15.32;;;;;;;;;;2106546;28;20051;-45
2021/10/21 04:48:57;;;;;;;26.80;16.63;;;;;;;;;;2103990;28;20465;-47
2021/10/21 04:49:58;;;;;;;22.57;15.27;;;;;;;;;;2106028;28;20081;-45
2021/10/21 04:50:59;;;;;;;31.27;15.18;;;;;;;;;;2106254;28;20579;-44
2021/10/21 04:52:01;;;;;;;26.23;16.80;;;;;;;;;;2105156;28;20049;-46
2021/10/21 04:53:03;;;;;;;25.08;15.65;;;;;;;;;;2104716;28;20048;-44
2021/10/21 04:54:03;;;;;;;;;;;;;;;;;;2106832;28;20052;-45
2021/10/21 04:55:07;;;;;;;23.52;15.10;;;;;;;;;;2105136;28;19927;-46
2021/10/21 04:56:09;;;;;;;24.45;15.88;;;;;;;;;;2097805;28;20577;-45
2021/10/21 04:57:11;;;;;;;25.55;15.70;;;;;;;;;;2097826;28;20049;-45
2021/10/21 04:58:11;;;;;;;21.48;14.27;;;;;;;;;;2102263;28;20507;-46
2021/10/21 04:59:12;;;;;;;22.10;15.13;;;;;;;;;;2106320;28;20139;-47
2021/10/21 05:00:14;;;;;;;28.48;15.38;;;;;;;;;;2106170;28;20127;-47
2021/10/21 05:01:15;;;;;;;23.45;13.75;;;;;;;;;;2103773;28;20573;-48
2021/10/21 05:02:16;;;;;;;24.13;15.18;;;;;;;;;;2106129;28;20048;-45
2021/10/21 05:03:17;;;;;;;27.48;15.50;;;;;;;;;;2100589;28;20056;-46
2021/10/21 05:04:18;;;;;;;25.50;15.50;;;;;;;;;;2104947;28;20055;-46
2021/10/21 05:05:19;;;;;;;28.38;15.65;;;;;;;;;;2106131;28;20040;-45
2021/10/21 05:06:21;;;;;;;24.97;14.57;;;;;;;;;;2105758;28;20059;-45
2021/10/21 05:07:21;;;;;;;26.83;15.25;;;;;;;;;;2103084;28;20544;-45
2021/10/21 05:08:23;;;;;;;21.38;13.52;;;;;;;;;;2106118;28;20318;-47
2021/10/21 05:09:24;;;;;;;27.05;16.35;;;;;;;;;;2105617;28;20078;-45
2021/10/21 05:10:25;;;;;;;27.20;15.90;;;;;;;;;;2106701;28;20134;-47
2021/10/21 05:11:26;;;;;;;26.85;15.23;;;;;;;;;;2106063;28;20123;-45
2021/10/21 05:12:27;;;;;;;24.45;14.35;;;;;;;;;;2104850;28;20054;-45
2021/10/21 05:13:28;;;;;;;24.70;15.77;;;;;;;;;;2106161;28;20080;-44
2021/10/21 05:14:29;;;;;;;25.77;15.60;;;;;;;;;;2105786;28;20155;-45
2021/10/21 05:15:30;;;;;;;24.80;14.77;;;;;;;;;;2104267;28;20709;-44
2021/10/21 05:16:31;;;;;;;30.45;14.43;;;;;;;;;;2106290;28;20131;-45
2021/10/21 05:17:32;;;;;;;25.10;15.20;;;;;;;;;;2106128;28;20044;-46
2021/10/21 05:18:33;;;;;;;26.38;15.43;;;;;;;;;;2104976;28;20376;-45
2021/10/21 05:19:34;;;;;;;24.63;15.37;;;;;;;;;;2105702;28;20431;-45
2021/10/21 05:20:35;;;;;;;25.17;15.73;;;;;;;;;;2106191;28;20040;-45
2021/10/21 05:21:36;;;;;;;25.25;15.75;;;;;;;;;;2103962;28;20179;-46
2021/10/21 05:22:37;;;;;;;32.60;16.40;;;;;;;;;;2105590;28;20044;-47
2021/10/21 05:23:39;;;;;;;23.98;15.38;;;;;;;;;;2106300;28;20128;-45
2021/10/21 05:24:40;;;;;;;22.52;15.88;;;;;;;;;;2103783;28;20552;-44
2021/10/21 05:25:41;;;;;;;22.38;15.43;;;;;;;;;;2106016;28;20044;-44
2021/10/21 05:26:42;;;;;;;22.10;13.85;;;;;;;;;;2106259;28;20044;-41
2021/10/21 05:27:43;;;;;;;28.15;15.20;;;;;;;;;;2104879;28;20047;-41
2021/10/21 05:28:44;;;;;;;25.23;14.32;;;;;;;;;;2105801;28;20127;-41
2021/10/21 05:29:45;;;;;;;24.87;14.07;;;;;;;;;;2106031;28;20056;-41
2021/10/21 05:30:46;;;;;;;20.73;14.38;;;;;;;;;;2104747;28;20362;-41
2021/10/21 05:31:47;;;;;;;25.60;15.77;;;;;;;;;;2105909;28;20040;-41
2021/10/21 05:32:49;;;;;;;25.60;15.35;;;;;;;;;;2106133;28;20040;-41
2021/10/21 05:33:49;;;;;;;24.17;15.07;;;;;;;;;;2103842;28;20043;-41
2021/10/21 05:34:50;;;;;;;23.30;14.10;;;;;;;;;;2106068;28;20040;-41
2021/10/21 05:35:51;;;;;;;23.92;14.82;;;;;;;;;;2105212;28;20416;-41
2021/10/21 05:36:52;;;;;;;23.83;14.13;;;;;;;;;;2105353;28;20054;-41
2021/10/21 05:37:53;;;;;;;25.27;14.48;;;;;;;;;;2105868;28;20083;-41
2021/10/21 05:38:54;;;;;;;18.88;13.63;;;;;;;;;;2104418;28;20048;-41
2021/10/21 05:39:55;;;;;;;24.30;14.38;;;;;;;;;;2105188;28;20052;-41
2021/10/21 05:40:57;;;;;;;20.10;12.77;;;;;;;;;;2106027;28;20048;-41
2021/10/21 05:41:58;;;;;;;;;;;;;;;;;;2104714;28;20130;-41
2021/10/21 05:42:59;;;;;;;21.67;13.68;;;;;;;;;;2105874;28;20400;-41
2021/10/21 05:44:00;;;;;;;24.30;15.88;;;;;;;;;;2105912;28;20070;-41
2021/10/21 05:45:01;;;;;;;23.35;13.82;;;;;;;;;;2104943;28;20040;-41
2021/10/21 05:46:02;;;;;;;22.15;14.98;;;;;;;;;;2105588;28;20048;-41
2021/10/21 05:47:04;;;;;;;24.97;14.57;;;;;;;;;;2105835;28;20064;-41
2021/10/21 05:48:05;;;;;;;21.85;15.18;;;;;;;;;;2104858;28;20631;-41
2021/10/21 05:49:06;;;;;;;22.50;13.77;;;;;;;;;;2105495;28;20059;-41
2021/10/21 05:50:07;;;;;;;23.02;14.25;;;;;;;;;;2105937;28;20094;-41
2021/10/21 05:51:09;;;;;;;20.48;13.50;;;;;;;;;;2104164;28;20258;-41
2021/10/21 05:52:09;;;;;;;22.08;14.43;;;;;;;;;;2105646;28;20116;-41
2021/10/21 05:53:11;;;;;;;24.35;14.75;;;;;;;;;;2106028;28;20658;-41
2021/10/21 05:54:12;;;;;;;25.52;15.45;;;;;;;;;;2104552;28;20127;-41
2021/10/21 05:55:13;;;;;;;25.40;15.18;;;;;;;;;;2105641;28;20131;-43
2021/10/21 05:56:14;;;;;;;24.02;14.07;;;;;;;;;;2105747;28;20044;-41
2021/10/21 05:57:15;;;;;;;25.15;15.23;;;;;;;;;;2103403;28;20041;-41
2021/10/21 05:58:16;;;;;;;22.83;13.68;;;;;;;;;;2105652;28;20139;-41